createdAt,value
2023-03-01T00:00:02.494Z,20.40
2023-03-01T00:02:38.264Z,14.95
2023-03-01T00:05:05.699Z,17.67
2023-03-01T00:07:32.436Z,14.75
2023-03-01T00:09:59.075Z,17.15
2023-03-01T00:12:26.060Z,16.65
2023-03-01T00:14:52.676Z,16.73
2023-03-01T00:17:19.386Z,16.65
2023-03-01T00:19:46.049Z,16.45
2023-03-01T00:22:13.043Z,17.40
2023-03-01T00:24:39.672Z,16.00
2023-03-01T00:27:06.246Z,16.58
2023-03-01T00:29:32.874Z,15.38
2023-03-01T00:32:00.589Z,16.83
2023-03-01T00:34:27.334Z,18.05
2023-03-01T00:36:55.045Z,12.60
2023-03-01T00:39:21.817Z,16.58
2023-03-01T00:41:48.504Z,13.65
2023-03-01T00:44:15.077Z,13.32
2023-03-01T00:46:41.846Z,17.92
2023-03-01T00:49:08.988Z,18.92
2023-03-01T00:51:35.747Z,16.13
2023-03-01T00:54:04.160Z,15.13
2023-03-01T00:56:32.062Z,16.77
2023-03-01T00:58:59.348Z,19.95
2023-03-01T01:01:32.131Z,13.90
2023-03-01T01:04:02.094Z,15.40
2023-03-01T01:06:34.827Z,18.10
2023-03-01T01:09:01.832Z,16.30
2023-03-01T01:11:30.567Z,17.17
2023-03-01T01:13:58.628Z,15.70
2023-03-01T01:16:27.356Z,14.48
2023-03-01T01:18:54.151Z,13.18
2023-03-01T01:21:23.801Z,19.58
2023-03-01T01:23:51.450Z,13.32
2023-03-01T01:26:21.843Z,16.42
2023-03-01T01:28:50.571Z,13.38
2023-03-01T01:31:18.546Z,14.88
2023-03-01T01:33:45.663Z,12.27
2023-03-01T01:36:13.581Z,10.88
2023-03-01T01:38:43.530Z,12.25
2023-03-01T01:41:13.023Z,16.63
2023-03-01T01:43:45.737Z,13.43
2023-03-01T01:46:24.608Z,15.35
2023-03-01T01:48:57.905Z,13.38
2023-03-01T01:51:28.970Z,15.70
2023-03-01T01:54:01.848Z,15.43
2023-03-01T01:56:30.395Z,12.45
2023-03-01T01:58:58.209Z,14.50
2023-03-01T02:01:25.650Z,16.73
2023-03-01T02:03:52.846Z,12.82
2023-03-01T02:06:22.591Z,15.18
2023-03-01T02:08:51.947Z,15.15
2023-03-01T02:11:20.215Z,15.38
2023-03-01T02:13:49.347Z,17.13
2023-03-01T02:16:17.346Z,15.38
2023-03-01T02:18:45.530Z,13.55
2023-03-01T02:21:27.491Z,14.68
2023-03-01T02:23:56.755Z,14.27
2023-03-01T02:26:43.302Z,12.50
2023-03-01T02:29:10.209Z,10.73
2023-03-01T02:31:42.818Z,13.98
2023-03-01T02:34:21.808Z,11.18
2023-03-01T02:36:53.418Z,14.15
2023-03-01T02:39:26.329Z,10.77
2023-03-01T02:41:57.153Z,13.48
2023-03-01T02:44:24.194Z,15.32
2023-03-01T02:46:54.081Z,16.90
2023-03-01T02:49:25.119Z,16.60
2023-03-01T02:52:16.866Z,12.27
2023-03-01T02:54:58.801Z,12.80
2023-03-01T02:57:28.383Z,12.65
2023-03-01T02:59:57.281Z,13.35
2023-03-01T03:02:39.784Z,14.48
2023-03-01T03:05:19.010Z,11.70
2023-03-01T03:07:48.296Z,13.18
2023-03-01T03:10:35.217Z,14.27
2023-03-01T03:13:10.000Z,14.23
2023-03-01T03:15:39.385Z,14.80
2023-03-01T03:18:11.028Z,15.85
2023-03-01T03:20:40.420Z,16.02
2023-03-01T03:23:07.257Z,12.65
2023-03-01T03:25:38.549Z,11.07
2023-03-01T03:28:10.719Z,15.40
2023-03-01T03:30:39.949Z,15.85
2023-03-01T03:33:07.684Z,12.68
2023-03-01T03:35:40.175Z,16.00
2023-03-01T03:38:16.437Z,14.95
2023-03-01T03:40:49.578Z,12.60
2023-03-01T03:43:20.587Z,15.68
2023-03-01T03:45:48.930Z,13.87
2023-03-01T03:48:16.403Z,17.48
2023-03-01T03:50:48.205Z,18.05
2023-03-01T03:55:41.684Z,13.55
2023-03-01T03:58:10.753Z,16.95
2023-03-01T04:00:40.919Z,13.15
2023-03-01T04:03:08.634Z,15.75
2023-03-01T04:05:36.184Z,19.15
2023-03-01T04:08:02.869Z,10.93
2023-03-01T04:10:36.401Z,14.60
2023-03-01T04:13:03.553Z,19.35
2023-03-01T04:15:31.726Z,16.85
2023-03-01T04:17:59.967Z,13.35
2023-03-01T04:20:32.242Z,13.93
2023-03-01T04:23:14.328Z,13.45
2023-03-01T04:25:56.245Z,15.23
2023-03-01T04:28:25.468Z,14.05
2023-03-01T04:30:54.549Z,16.67
2023-03-01T04:33:21.585Z,14.23
2023-03-01T04:35:52.365Z,15.70
2023-03-01T04:38:20.462Z,13.98
2023-03-01T04:40:47.211Z,14.55
2023-03-01T04:43:17.478Z,13.18
2023-03-01T04:45:44.578Z,16.63
2023-03-01T04:48:11.242Z,21.40
2023-03-01T04:50:37.983Z,16.00
2023-03-01T04:53:04.618Z,15.82
2023-03-01T04:55:32.626Z,15.50
2023-03-01T04:57:59.446Z,16.90
2023-03-01T05:00:26.062Z,12.63
2023-03-01T05:02:58.927Z,13.90
2023-03-01T05:05:37.830Z,12.98
2023-03-01T05:08:08.869Z,16.55
2023-03-01T05:10:36.900Z,17.10
2023-03-01T05:13:04.706Z,14.00
2023-03-01T05:15:32.839Z,18.33
2023-03-01T05:18:01.063Z,16.45
2023-03-01T05:20:29.651Z,13.50
2023-03-01T05:23:00.358Z,16.98
2023-03-01T05:25:28.164Z,17.52
2023-03-01T05:27:54.777Z,15.07
2023-03-01T05:30:22.810Z,15.88
2023-03-01T05:32:56.511Z,16.02
2023-03-01T05:35:23.853Z,14.85
2023-03-01T05:37:50.812Z,13.90
2023-03-01T05:40:20.047Z,18.35
2023-03-01T05:42:54.115Z,16.05
2023-03-01T05:45:22.114Z,15.35
2023-03-01T05:47:49.885Z,13.27
2023-03-01T05:50:21.666Z,15.82
2023-03-01T05:52:57.376Z,13.75
2023-03-01T05:55:24.402Z,15.23
2023-03-01T05:57:52.217Z,16.63
2023-03-01T06:00:23.221Z,13.15
2023-03-01T06:02:51.004Z,15.40
2023-03-01T06:05:17.690Z,14.95
2023-03-01T06:07:45.085Z,18.02
2023-03-01T06:10:13.780Z,16.05
2023-03-01T06:12:41.877Z,18.30
2023-03-01T06:15:10.913Z,16.20
2023-03-01T06:17:38.972Z,19.25
2023-03-01T06:20:11.657Z,18.13
2023-03-01T06:22:38.393Z,15.15
2023-03-01T06:25:06.514Z,17.95
2023-03-01T06:27:33.191Z,23.05
2023-03-01T06:30:00.099Z,14.98
2023-03-01T06:32:26.793Z,14.82
2023-03-01T06:34:53.365Z,13.98
2023-03-01T06:37:19.977Z,13.90
2023-03-01T06:39:46.904Z,17.67
2023-03-01T06:42:13.638Z,16.98
2023-03-01T06:44:40.331Z,14.85
2023-03-01T06:47:06.912Z,18.80
2023-03-01T06:49:33.648Z,18.08
2023-03-01T06:52:00.364Z,16.05
2023-03-01T06:54:26.919Z,19.55
2023-03-01T06:56:54.159Z,14.98
2023-03-01T06:59:21.040Z,15.20
2023-03-01T07:01:47.646Z,15.75
2023-03-01T07:04:14.823Z,16.67
2023-03-01T07:06:41.399Z,17.52
2023-03-01T07:09:08.155Z,17.23
2023-03-01T07:11:34.907Z,15.30
2023-03-01T07:14:01.751Z,17.15
2023-03-01T07:16:28.419Z,17.63
2023-03-01T07:18:55.296Z,17.80
2023-03-01T07:21:21.917Z,14.70
2023-03-01T07:23:50.114Z,17.25
2023-03-01T07:26:16.866Z,19.10
2023-03-01T07:28:43.513Z,18.08
2023-03-01T07:31:10.629Z,14.90
2023-03-01T07:33:37.157Z,17.83
2023-03-01T07:36:04.872Z,18.50
2023-03-01T07:38:31.991Z,18.98
2023-03-01T07:41:04.898Z,22.35
2023-03-01T07:43:32.033Z,17.55
2023-03-01T07:46:01.433Z,19.88
2023-03-01T07:48:29.299Z,19.00
2023-03-01T07:50:58.507Z,17.73
2023-03-01T07:53:25.373Z,18.83
2023-03-01T07:56:13.812Z,24.33
2023-03-01T07:58:42.624Z,17.25
2023-03-01T08:01:15.731Z,14.93
2023-03-01T08:03:43.573Z,16.75
2023-03-01T08:06:12.236Z,21.15
2023-03-01T08:08:39.005Z,15.68
2023-03-01T08:11:07.356Z,20.48
2023-03-01T08:13:34.368Z,18.58
2023-03-01T08:16:05.497Z,19.90
2023-03-01T08:18:32.508Z,15.77
2023-03-01T08:21:11.852Z,18.45
2023-03-01T08:23:39.170Z,17.95
2023-03-01T08:26:13.494Z,19.27
2023-03-01T08:28:40.940Z,18.60
2023-03-01T08:31:21.746Z,14.82
2023-03-01T08:33:51.792Z,17.02
2023-03-01T08:36:19.191Z,17.52
2023-03-01T08:38:46.816Z,17.45
2023-03-01T08:41:13.697Z,24.40
2023-03-01T08:43:40.485Z,19.52
2023-03-01T08:46:07.264Z,20.50
2023-03-01T08:48:33.951Z,17.58
2023-03-01T08:51:21.510Z,16.55
2023-03-01T08:53:49.058Z,19.20
2023-03-01T08:56:17.120Z,18.55
2023-03-01T08:58:48.332Z,17.42
2023-03-01T09:01:17.840Z,15.55
2023-03-01T09:03:45.481Z,21.73
2023-03-01T09:06:13.185Z,19.00
2023-03-01T09:08:42.156Z,14.82
2023-03-01T09:11:11.404Z,17.65
2023-03-01T09:13:38.411Z,17.88
2023-03-01T09:16:07.463Z,18.00
2023-03-01T09:18:35.239Z,15.43
2023-03-01T09:21:10.472Z,18.52
2023-03-01T09:23:39.966Z,16.35
2023-03-01T09:26:08.000Z,16.50
2023-03-01T09:28:34.766Z,18.70
2023-03-01T09:31:02.875Z,16.60
2023-03-01T09:33:31.302Z,16.00
2023-03-01T09:35:59.505Z,15.40
2023-03-01T09:38:27.190Z,14.77
2023-03-01T09:40:54.084Z,16.58
2023-03-01T09:43:46.680Z,15.35
2023-03-01T09:46:18.883Z,19.70
2023-03-01T09:48:49.672Z,16.00
2023-03-01T09:51:23.499Z,18.63
2023-03-01T09:53:50.274Z,15.85
2023-03-01T09:56:31.400Z,18.38
2023-03-01T09:59:07.657Z,17.25
2023-03-01T10:01:58.677Z,19.42
2023-03-01T10:04:57.886Z,15.43
2023-03-01T10:07:27.143Z,14.32
2023-03-01T10:09:53.883Z,18.67
2023-03-01T10:12:27.196Z,23.27
2023-03-01T10:14:56.882Z,20.75
2023-03-01T10:17:45.474Z,17.38
2023-03-01T10:20:34.617Z,16.40
2023-03-01T10:23:02.223Z,16.13
2023-03-01T10:25:54.032Z,14.82
2023-03-01T10:28:38.656Z,18.02
2023-03-01T10:31:05.417Z,16.73
2023-03-01T10:33:36.496Z,21.70
2023-03-01T10:36:03.244Z,16.27
2023-03-01T10:38:33.027Z,19.63
2023-03-01T10:41:08.556Z,19.55
2023-03-01T10:43:47.728Z,21.85
2023-03-01T10:46:27.742Z,20.98
2023-03-01T10:49:20.879Z,19.40
2023-03-01T10:51:53.283Z,18.40
2023-03-01T10:54:31.493Z,19.05
2023-03-01T10:57:01.193Z,24.23
2023-03-01T10:59:27.672Z,17.50
2023-03-01T11:02:25.497Z,17.30
2023-03-01T11:05:00.570Z,18.45
2023-03-01T11:07:27.989Z,17.67
2023-03-01T11:09:54.659Z,17.05
2023-03-01T11:12:22.209Z,21.20
2023-03-01T11:14:54.959Z,17.05
2023-03-01T11:17:39.042Z,23.85
2023-03-01T11:20:14.005Z,19.45
2023-03-01T11:22:47.587Z,16.25
2023-03-01T11:25:15.831Z,17.13
2023-03-01T11:27:45.556Z,18.60
2023-03-01T11:30:23.941Z,14.77
2023-03-01T11:33:08.781Z,23.63
2023-03-01T11:35:39.246Z,17.17
2023-03-01T11:38:23.052Z,22.33
2023-03-01T11:41:03.179Z,17.98
2023-03-01T11:44:24.466Z,16.10
2023-03-01T11:47:09.899Z,14.40
2023-03-01T11:49:42.731Z,16.25
2023-03-01T11:52:56.772Z,19.02
2023-03-01T11:55:48.823Z,13.38
2023-03-01T11:58:28.132Z,19.88
2023-03-01T12:01:22.093Z,17.27
2023-03-01T12:04:16.360Z,18.40
2023-03-01T12:07:00.595Z,15.85
2023-03-01T12:09:52.306Z,17.13
2023-03-01T12:12:47.470Z,15.85
2023-03-01T12:15:44.664Z,16.08
2023-03-01T12:18:21.360Z,20.02
2023-03-01T12:20:50.822Z,15.00
2023-03-01T12:23:39.864Z,17.63
2023-03-01T12:26:27.589Z,18.85
2023-03-01T12:29:16.489Z,19.38
2023-03-01T12:31:49.301Z,16.00
2023-03-01T12:34:42.261Z,18.35
2023-03-01T12:37:36.865Z,24.00
2023-03-01T12:40:40.629Z,16.95
2023-03-01T12:43:16.215Z,17.83
2023-03-01T12:46:08.220Z,22.75
2023-03-01T12:48:41.134Z,16.33
2023-03-01T12:51:13.938Z,17.17
2023-03-01T12:53:50.041Z,23.25
2023-03-01T12:56:22.009Z,16.90
2023-03-01T12:59:29.966Z,18.90
2023-03-01T13:02:15.056Z,18.60
2023-03-01T13:04:41.547Z,16.58
2023-03-01T13:07:27.077Z,16.63
2023-03-01T13:10:18.167Z,13.48
2023-03-01T13:12:51.008Z,16.75
2023-03-01T13:15:23.695Z,17.27
2023-03-01T13:17:50.212Z,12.80
2023-03-01T13:20:24.397Z,14.68
2023-03-01T13:23:04.227Z,14.82
2023-03-01T13:25:37.753Z,16.73
2023-03-01T13:28:47.075Z,16.77
2023-03-01T13:31:16.413Z,19.00
2023-03-01T13:34:08.199Z,13.48
2023-03-01T13:39:27.395Z,17.75
2023-03-01T13:41:55.917Z,15.80
2023-03-01T13:44:27.393Z,16.65
2023-03-01T13:49:55.999Z,16.15
2023-03-01T13:52:40.430Z,13.10
2023-03-01T13:55:32.296Z,13.13
2023-03-01T13:58:02.209Z,14.00
2023-03-01T14:00:32.841Z,16.48
2023-03-01T14:03:09.045Z,14.38
2023-03-01T14:05:37.138Z,16.52
2023-03-01T14:08:05.591Z,17.17
2023-03-01T14:10:53.028Z,14.70
2023-03-01T14:13:36.577Z,15.02
2023-03-01T14:16:32.764Z,17.08
2023-03-01T14:19:20.287Z,18.25
2023-03-01T14:22:05.324Z,15.05
2023-03-01T14:24:36.479Z,14.73
2023-03-01T14:27:03.393Z,15.73
2023-03-01T14:29:39.016Z,16.05
2023-03-01T14:32:22.105Z,18.45
2023-03-01T14:34:51.322Z,16.40
2023-03-01T14:37:22.656Z,17.25
2023-03-01T14:39:50.395Z,17.02
2023-03-01T14:42:17.610Z,15.05
2023-03-01T14:44:47.420Z,14.73
2023-03-01T14:47:24.438Z,15.13
2023-03-01T14:49:58.088Z,15.35
2023-03-01T14:52:35.708Z,16.77
2023-03-01T14:55:04.889Z,18.00
2023-03-01T14:57:31.462Z,15.38
2023-03-01T15:00:07.234Z,16.23
2023-03-01T15:02:34.150Z,14.10
2023-03-01T15:05:03.305Z,12.95
2023-03-01T15:07:34.287Z,16.15
2023-03-01T15:10:02.155Z,16.50
2023-03-01T15:12:28.870Z,14.95
2023-03-01T15:15:03.988Z,17.20
2023-03-01T15:17:35.306Z,14.10
2023-03-01T15:20:05.233Z,14.75
2023-03-01T15:22:32.198Z,16.65
2023-03-01T15:24:58.989Z,14.85
2023-03-01T15:27:27.051Z,15.55
2023-03-01T15:29:58.984Z,20.10
2023-03-01T15:32:40.138Z,15.75
2023-03-01T15:35:40.854Z,18.98
2023-03-01T15:38:26.185Z,17.17
2023-03-01T15:40:53.778Z,16.33
2023-03-01T15:43:43.641Z,14.95
2023-03-01T15:46:33.327Z,17.60
2023-03-01T15:49:04.523Z,20.50
2023-03-01T15:51:38.627Z,18.05
2023-03-01T15:54:22.492Z,17.55
2023-03-01T15:56:49.116Z,17.17
2023-03-01T15:59:15.790Z,19.05
2023-03-01T16:01:43.131Z,21.05
2023-03-01T16:04:21.604Z,17.80
2023-03-01T16:06:55.153Z,20.13
2023-03-01T16:09:26.616Z,18.30
2023-03-01T16:11:54.341Z,17.70
2023-03-01T16:14:21.447Z,19.67
2023-03-01T16:16:51.423Z,17.10
2023-03-01T16:19:18.142Z,17.95
2023-03-01T16:21:47.615Z,16.50
2023-03-01T16:24:14.566Z,16.98
2023-03-01T16:26:41.214Z,22.92
2023-03-01T16:29:07.847Z,23.77
2023-03-01T16:31:34.755Z,17.83
2023-03-01T16:34:01.815Z,19.27
2023-03-01T16:36:31.502Z,20.27
2023-03-01T16:39:01.602Z,20.42
2023-03-01T16:41:29.030Z,20.35
2023-03-01T16:43:55.852Z,18.02
2023-03-01T16:46:29.108Z,19.90
2023-03-01T16:48:56.501Z,22.90
2023-03-01T16:51:24.440Z,20.73
2023-03-01T16:53:51.977Z,19.95
2023-03-01T16:56:20.263Z,27.45
2023-03-01T16:58:47.145Z,26.10
2023-03-01T17:01:19.365Z,24.08
2023-03-01T17:03:47.558Z,26.52
2023-03-01T17:06:18.074Z,33.63
2023-03-01T17:08:44.896Z,23.70
2023-03-01T17:11:19.492Z,23.08
2023-03-01T17:13:46.630Z,23.92
2023-03-01T17:16:17.006Z,26.85
2023-03-01T17:18:43.904Z,18.90
2023-03-01T17:21:11.096Z,21.20
2023-03-01T17:23:40.376Z,20.90
2023-03-01T17:26:07.869Z,17.73
2023-03-01T17:28:35.890Z,19.05
2023-03-01T17:31:04.676Z,21.35
2023-03-01T17:33:31.928Z,19.27
2023-03-01T17:35:59.804Z,23.52
2023-03-01T17:38:26.561Z,23.13
2023-03-01T17:40:54.276Z,19.48
2023-03-01T17:43:21.576Z,21.75
2023-03-01T17:45:50.750Z,22.67
2023-03-01T17:48:17.828Z,25.35
2023-03-01T17:50:45.124Z,22.25
2023-03-01T17:53:11.928Z,23.58
2023-03-01T17:55:46.101Z,30.20
2023-03-01T17:58:14.844Z,32.33
2023-03-01T18:00:41.959Z,31.92
2023-03-01T18:03:08.778Z,28.67
2023-03-01T18:05:37.954Z,27.17
2023-03-01T18:08:05.122Z,23.05
2023-03-01T18:10:34.588Z,23.83
2023-03-01T18:13:01.124Z,25.05
2023-03-01T18:15:27.843Z,20.88
2023-03-01T18:17:55.132Z,22.55
2023-03-01T18:20:21.888Z,25.02
2023-03-01T18:22:49.454Z,23.83
2023-03-01T18:25:16.049Z,27.55
2023-03-01T18:27:42.859Z,23.42
2023-03-01T18:30:10.171Z,22.92
2023-03-01T18:32:37.469Z,23.83
2023-03-01T18:35:04.491Z,23.63
2023-03-01T18:37:31.137Z,17.48
2023-03-01T18:39:57.921Z,21.25
2023-03-01T18:42:24.554Z,20.88
2023-03-01T18:44:51.494Z,20.88
2023-03-01T18:47:18.245Z,27.77
2023-03-01T18:49:45.072Z,24.30
2023-03-01T18:52:11.968Z,26.27
2023-03-01T18:54:38.682Z,27.77
2023-03-01T18:57:05.359Z,21.77
2023-03-01T18:59:32.555Z,23.08
2023-03-01T19:01:59.217Z,24.00
2023-03-01T19:04:26.876Z,27.80
2023-03-01T19:06:54.000Z,27.55
2023-03-01T19:09:21.022Z,22.75
2023-03-01T19:11:47.583Z,21.33
2023-03-01T19:14:14.191Z,23.95
2023-03-01T19:16:40.907Z,23.98
2023-03-01T19:19:09.919Z,20.25
2023-03-01T19:21:37.152Z,22.38
2023-03-01T19:24:04.611Z,19.10
2023-03-01T19:26:32.343Z,16.52
2023-03-01T19:28:59.884Z,19.35
2023-03-01T19:31:29.650Z,18.40
2023-03-01T19:34:10.032Z,21.73
2023-03-01T19:36:39.127Z,17.77
2023-03-01T19:39:06.770Z,22.30
2023-03-01T19:41:33.754Z,22.40
2023-03-01T19:44:04.511Z,18.17
2023-03-01T19:46:32.572Z,21.80
2023-03-01T19:49:00.626Z,19.63
2023-03-01T19:51:27.717Z,23.50
2023-03-01T19:53:54.994Z,23.52
2023-03-01T19:56:22.634Z,22.27
2023-03-01T19:58:50.509Z,20.08
2023-03-01T20:01:20.264Z,23.95
2023-03-01T20:03:47.908Z,27.00
2023-03-01T20:06:18.674Z,28.50
2023-03-01T20:08:45.409Z,25.67
2023-03-01T20:11:14.195Z,24.80
2023-03-01T20:13:41.114Z,28.13
2023-03-01T20:16:09.013Z,29.20
2023-03-01T20:18:36.308Z,23.98
2023-03-01T20:21:05.398Z,19.92
2023-03-01T20:23:33.953Z,25.25
2023-03-01T20:26:16.360Z,31.77
2023-03-01T20:28:43.906Z,26.95
2023-03-01T20:31:12.577Z,27.70
2023-03-01T20:33:39.960Z,25.40
2023-03-01T20:36:08.306Z,29.27
2023-03-01T20:38:35.459Z,25.27
2023-03-01T20:41:06.112Z,27.73
2023-03-01T20:43:34.021Z,27.08
2023-03-01T20:46:08.631Z,26.35
2023-03-01T20:48:35.332Z,30.73
2023-03-01T20:51:08.384Z,24.77
2023-03-01T20:53:35.383Z,30.50
2023-03-01T20:56:06.788Z,26.33
2023-03-01T20:58:35.562Z,27.63
2023-03-01T21:01:03.366Z,21.35
2023-03-01T21:03:30.570Z,22.52
2023-03-01T21:06:02.372Z,31.13
2023-03-01T21:08:30.322Z,28.23
2023-03-01T21:10:58.048Z,26.02
2023-03-01T21:13:26.304Z,30.40
2023-03-01T21:16:19.798Z,27.33
2023-03-01T21:18:47.097Z,25.42
2023-03-01T21:21:16.497Z,19.10
2023-03-01T21:23:44.565Z,24.02
2023-03-01T21:26:15.370Z,25.90
2023-03-01T21:28:43.259Z,26.02
2023-03-01T21:31:14.261Z,23.50
2023-03-01T21:33:45.118Z,27.10
2023-03-01T21:36:12.603Z,25.90
2023-03-01T21:38:41.696Z,22.42
2023-03-01T21:41:11.946Z,25.13
2023-03-01T21:43:39.868Z,22.52
2023-03-01T21:46:10.684Z,23.92
2023-03-01T21:48:39.899Z,27.67
2023-03-01T21:51:08.550Z,21.70
2023-03-01T21:53:36.074Z,23.13
2023-03-01T21:56:02.981Z,25.65
2023-03-01T21:58:31.476Z,22.60
2023-03-01T22:01:06.568Z,20.75
2023-03-01T22:03:33.360Z,21.42
2023-03-01T22:06:02.038Z,25.23
2023-03-01T22:08:29.060Z,20.75
2023-03-01T22:10:55.697Z,25.17
2023-03-01T22:13:22.394Z,21.92
2023-03-01T22:15:49.092Z,23.45
2023-03-01T22:18:15.673Z,18.17
2023-03-01T22:20:42.442Z,24.67
2023-03-01T22:23:09.266Z,20.88
2023-03-01T22:25:41.295Z,19.73
2023-03-01T22:28:08.135Z,23.00
2023-03-01T22:30:35.835Z,27.33
2023-03-01T22:33:03.098Z,23.15
2023-03-01T22:35:29.761Z,20.98
2023-03-01T22:37:56.470Z,19.30
2023-03-01T22:40:23.215Z,21.20
2023-03-01T22:42:49.764Z,17.42
2023-03-01T22:45:16.531Z,20.38
2023-03-01T22:47:43.184Z,19.75
2023-03-01T22:50:14.363Z,19.00
2023-03-01T22:52:41.256Z,18.63
2023-03-01T22:55:08.516Z,18.75
2023-03-01T22:57:35.295Z,18.60
2023-03-01T23:00:02.210Z,23.13
2023-03-01T23:02:28.875Z,19.60
2023-03-01T23:04:55.772Z,21.20
2023-03-01T23:07:22.380Z,21.95
2023-03-01T23:09:51.009Z,24.05
2023-03-01T23:12:17.842Z,22.75
2023-03-01T23:14:44.832Z,23.80
2023-03-01T23:17:12.897Z,19.45
2023-03-01T23:19:39.523Z,26.40
2023-03-01T23:22:06.274Z,20.33
2023-03-01T23:24:34.242Z,22.98
2023-03-01T23:27:02.386Z,17.65
2023-03-01T23:29:29.594Z,22.88
2023-03-01T23:32:00.013Z,21.10
2023-03-01T23:34:27.467Z,17.48
2023-03-01T23:36:55.378Z,20.05
2023-03-01T23:39:22.092Z,21.02
2023-03-01T23:41:48.796Z,24.23
2023-03-01T23:44:18.137Z,25.77
2023-03-01T23:46:46.329Z,15.20
2023-03-01T23:49:14.787Z,20.85
2023-03-01T23:51:44.499Z,20.23
2023-03-01T23:54:14.093Z,19.67
2023-03-01T23:56:42.632Z,17.20
2023-03-01T23:59:17.200Z,20.90
